Time;durP1;ratioP1;P1;durP2;ratioP2;P2;SDS_P1;SDS_P2;PMS_P1;PMS_P2;Temp;Humidity;BMP_temperature;BMP_pressure;BME280_temperature;BME280_humidity;BME280_pressure;Samples;Min_cycle;Max_cycle;Signal;HPM_P1;HPM_P2
2022/11/05 00:09:40;;;;;;;1.38;1.27;;;9.50;99.90;;;;;;4975684;28;20467;-74
2022/11/05 00:17:38;;;;;;;2.10;1.70;;;9.30;99.90;;;;;;4975612;28;20516;-74
2022/11/05 00:20:05;;;;;;;1.50;1.40;;;9.20;99.90;;;;;;4975266;28;20866;-74
2022/11/05 00:25:16;;;;;;;1.50;1.40;;;9.20;99.90;;;;;;4975216;28;20454;-74
2022/11/05 00:27:47;;;;;;;1.77;1.67;;;9.20;99.90;;;;;;4974554;28;20384;-74
2022/11/05 00:30:17;;;;;;;1.92;1.40;;;9.30;99.90;;;;;;4975163;28;20388;-74
2022/11/05 00:32:44;;;;;;;2.65;1.80;;;9.30;99.90;;;;;;4973452;28;20467;-74
2022/11/05 00:35:10;;;;;;;1.90;1.70;;;9.30;99.90;;;;;;4973701;28;20393;-74
2022/11/05 00:37:35;;;;;;;2.72;2.00;;;9.30;99.90;;;;;;4974955;28;20381;-74
2022/11/05 00:40:01;;;;;;;2.53;2.22;;;9.10;99.90;;;;;;4974828;28;20893;-74
2022/11/05 00:45:11;;;;;;;2.50;2.17;;;9.10;99.90;;;;;;4974587;28;20382;-74
2022/11/05 00:50:23;;;;;;;3.08;2.10;;;9.00;99.90;;;;;;4974969;28;20905;-74
2022/11/05 00:52:55;;;;;;;2.20;2.10;;;9.00;99.90;;;;;;4989234;28;20380;-74
2022/11/05 00:55:32;;;;;;;2.45;2.10;;;8.90;99.90;;;;;;4974693;28;20388;-74
2022/11/05 00:57:57;;;;;;;2.40;2.20;;;8.90;99.90;;;;;;4974374;28;20435;-75
2022/11/05 01:00:25;;;;;;;2.57;2.27;;;8.90;99.90;;;;;;4974475;28;20392;-74
2022/11/05 01:02:51;;;;;;;2.40;2.20;;;9.00;99.90;;;;;;4974172;28;20957;-74
2022/11/05 01:05:16;;;;;;;2.00;1.90;;;8.90;99.90;;;;;;4974464;28;20471;-74
2022/11/05 01:07:45;;;;;;;2.10;2.00;;;9.00;99.90;;;;;;4973465;28;20473;-74
2022/11/05 01:10:10;;;;;;;2.30;2.10;;;9.10;99.90;;;;;;4973125;28;20758;-74
2022/11/05 01:12:36;;;;;;;2.70;2.40;;;9.00;99.90;;;;;;4973839;28;20388;-74
2022/11/05 01:15:02;;;;;;;2.30;2.10;;;9.10;99.90;;;;;;4974241;28;20396;-74
2022/11/05 01:17:27;;;;;;;2.50;2.30;;;9.10;99.90;;;;;;4972906;28;20763;-74
2022/11/05 01:19:53;;;;;;;2.17;1.97;;;9.00;99.90;;;;;;4974133;28;20380;-74
2022/11/05 01:22:18;;;;;;;2.40;2.20;;;9.00;99.90;;;;;;4973828;28;20487;-74
2022/11/05 01:24:44;;;;;;;2.30;2.00;;;9.00;99.90;;;;;;4973428;28;20396;-74
2022/11/05 01:27:09;;;;;;;2.33;2.13;;;9.10;99.90;;;;;;4972694;28;20380;-74
2022/11/05 01:29:35;;;;;;;1.80;1.70;;;9.00;99.90;;;;;;4983885;23;20951;-73
2022/11/05 01:32:00;;;;;;;1.60;1.50;;;9.00;99.90;;;;;;4955266;29;20409;-73
2022/11/05 01:34:26;;;;;;;1.63;1.50;;;9.20;99.90;;;;;;4955061;29;20378;-73
2022/11/05 01:36:51;;;;;;;2.27;1.90;;;9.00;99.90;;;;;;4954364;29;20394;-73
2022/11/05 01:39:17;;;;;;;2.03;1.90;;;8.70;99.90;;;;;;4954551;28;20382;-73
2022/11/05 01:41:42;;;;;;;2.15;2.05;;;8.80;99.90;;;;;;4951875;29;20912;-73
2022/11/05 01:44:46;;;;;;;1.50;1.40;;;8.90;99.90;;;;;;4952945;28;20421;-73
2022/11/05 01:47:39;;;;;;;2.28;1.80;;;9.00;99.90;;;;;;4952395;28;20437;-73
2022/11/05 01:50:23;;;;;;;2.05;1.80;;;8.90;99.90;;;;;;4953473;29;20499;-72
2022/11/05 01:52:52;;;;;;;1.60;1.50;;;8.90;99.90;;;;;;4953004;29;20784;-73
2022/11/05 01:55:24;;;;;;;1.60;1.50;;;8.80;99.90;;;;;;4952255;28;20428;-73
2022/11/05 01:57:52;;;;;;;1.70;1.60;;;8.80;99.90;;;;;;4953920;29;20390;-73
2022/11/05 02:00:18;;;;;;;1.50;1.40;;;9.00;99.90;;;;;;4954049;28;20464;-72
2022/11/05 02:02:43;;;;;;;1.60;1.50;;;9.00;99.90;;;;;;4952661;28;20908;-72
2022/11/05 02:05:11;;;;;;;1.77;1.30;;;8.90;99.90;;;;;;4953864;29;20904;-73
2022/11/05 02:07:37;;;;;;;1.10;1.00;;;8.90;99.90;;;;;;4953131;28;20424;-73
2022/11/05 02:10:02;;;;;;;1.52;0.95;;;9.00;99.90;;;;;;4953829;28;20394;-73
2022/11/05 02:12:29;;;;;;;1.30;1.20;;;8.90;99.90;;;;;;4952732;29;20414;-73
2022/11/05 02:14:56;;;;;;;1.25;1.15;;;8.80;99.90;;;;;;4950456;28;20429;-73
2022/11/05 02:17:29;;;;;;;1.58;1.33;;;8.80;99.90;;;;;;4951604;29;20888;-72
2022/11/05 02:20:08;;;;;;;1.23;1.13;;;8.90;99.90;;;;;;4953762;28;20478;-73
2022/11/05 02:22:39;;;;;;;3.00;1.67;;;9.00;99.90;;;;;;4950744;29;20501;-74
2022/11/05 02:25:22;;;;;;;1.00;1.00;;;9.00;99.90;;;;;;4953582;28;20397;-73
2022/11/05 02:28:13;;;;;;;1.80;1.50;;;8.90;99.90;;;;;;4934846;29;20442;-72
2022/11/05 02:30:52;;;;;;;1.48;1.20;;;8.80;99.90;;;;;;4945859;29;20957;-73
2022/11/05 02:33:58;;;;;;;1.63;1.52;;;8.80;99.90;;;;;;4953324;28;20390;-72
2022/11/05 02:36:47;;;;;;;2.07;1.60;;;8.80;99.90;;;;;;4952696;28;20575;-73
2022/11/05 02:39:25;;;;;;;1.50;1.40;;;9.00;99.90;;;;;;4952304;28;20504;-72
2022/11/05 02:42:18;;;;;;;1.25;1.00;;;8.90;99.90;;;;;;4953276;28;20520;-73
2022/11/05 02:45:06;;;;;;;1.30;1.20;;;8.90;99.90;;;;;;4953040;29;20382;-73
2022/11/05 02:47:45;;;;;;;2.10;1.20;;;9.00;99.90;;;;;;4950944;29;20418;-73
2022/11/05 02:50:33;;;;;;;1.50;1.40;;;8.90;99.90;;;;;;4951817;28;20390;-73
2022/11/05 02:53:22;;;;;;;2.13;1.70;;;8.80;99.90;;;;;;4952002;28;20417;-72
2022/11/05 02:56:25;;;;;;;1.70;1.60;;;8.90;99.90;;;;;;4953058;29;20385;-73
2022/11/05 02:58:51;;;;;;;2.10;2.00;;;9.00;99.90;;;;;;4950702;29;20410;-74
2022/11/05 03:01:16;;;;;;;1.90;1.80;;;9.10;99.90;;;;;;4951671;28;20936;-73
2022/11/05 03:03:49;;;;;;;1.92;1.73;;;9.10;99.90;;;;;;4952541;29;20426;-74
2022/11/05 03:06:51;;;;;;;1.60;1.50;;;9.10;99.90;;;;;;4952989;28;20875;-73
2022/11/05 03:09:31;;;;;;;1.63;1.53;;;9.00;99.90;;;;;;4952861;29;20382;-73
2022/11/05 03:12:17;;;;;;;1.80;1.70;;;9.00;99.90;;;;;;4951830;28;20420;-73
2022/11/05 03:14:55;;;;;;;1.67;1.40;;;9.10;99.90;;;;;;4951612;28;20409;-73
2022/11/05 03:17:48;;;;;;;3.00;1.55;;;9.10;99.90;;;;;;4952825;28;20529;-73
2022/11/05 03:20:24;;;;;;;1.65;1.55;;;8.90;99.90;;;;;;4951728;29;20381;-74
2022/11/05 03:23:07;;;;;;;1.60;1.50;;;8.90;99.90;;;;;;4949673;29;20924;-72
2022/11/05 03:25:38;;;;;;;1.70;1.60;;;9.10;99.90;;;;;;4933549;29;20482;-73
2022/11/05 03:28:06;;;;;;;1.30;1.20;;;9.10;99.90;;;;;;4933533;29;20391;-72
2022/11/05 03:30:35;;;;;;;1.02;1.02;;;9.10;99.90;;;;;;4936031;29;20418;-73
2022/11/05 03:33:07;;;;;;;2.40;1.50;;;9.00;99.90;;;;;;4952298;28;20397;-74
2022/11/05 03:35:42;;;;;;;1.30;1.20;;;9.00;99.90;;;;;;4945379;29;20413;-74
2022/11/05 03:38:15;;;;;;;1.30;1.20;;;9.00;99.90;;;;;;4951389;28;20773;-73
2022/11/05 03:40:44;;;;;;;1.50;1.40;;;8.90;99.90;;;;;;4952405;28;20414;-74
2022/11/05 03:43:12;;;;;;;1.55;1.45;;;9.00;99.90;;;;;;4952123;28;20394;-74
2022/11/05 03:45:49;;;;;;;1.90;1.40;;;8.90;99.90;;;;;;4951440;28;20413;-73
2022/11/05 03:48:17;;;;;;;1.58;1.48;;;8.90;99.90;;;;;;4952346;29;20425;-73
2022/11/05 03:50:52;;;;;;;1.50;1.40;;;8.80;99.90;;;;;;4951227;28;20502;-73
2022/11/05 03:53:23;;;;;;;1.60;1.40;;;8.90;99.90;;;;;;4952059;28;20401;-74
2022/11/05 03:56:14;;;;;;;1.50;1.40;;;8.90;99.90;;;;;;4950989;28;20398;-74
2022/11/05 03:58:44;;;;;;;1.60;1.25;;;8.90;99.90;;;;;;4951256;28;20413;-75
2022/11/05 04:01:11;;;;;;;2.17;1.30;;;8.90;99.90;;;;;;4952204;28;20422;-75
2022/11/05 04:03:36;;;;;;;1.10;1.00;;;8.90;99.90;;;;;;4951347;28;20381;-74
2022/11/05 04:14:16;;;;;;;1.25;1.15;;;8.80;99.90;;;;;;4952069;29;20469;-75
2022/11/05 04:24:58;;;;;;;1.30;0.88;;;8.70;99.90;;;;;;4950723;29;20413;-75
2022/11/05 04:27:24;;;;;;;1.67;0.90;;;8.70;99.90;;;;;;4952095;28;20389;-72
2022/11/05 04:32:33;;;;;;;1.77;1.08;;;8.70;99.90;;;;;;4949640;29;20525;-75
2022/11/05 04:34:59;;;;;;;1.90;0.90;;;8.70;99.90;;;;;;4951790;29;20469;-74
2022/11/05 04:37:25;;;;;;;2.03;0.90;;;8.60;99.90;;;;;;4952067;29;20488;-74
2022/11/05 04:39:50;;;;;;;1.00;0.90;;;8.70;99.90;;;;;;4951815;29;20393;-74
2022/11/05 04:42:16;;;;;;;0.90;0.80;;;8.90;99.90;;;;;;4950874;28;20437;-73
2022/11/05 04:44:41;;;;;;;0.80;0.70;;;8.80;99.90;;;;;;4955072;28;20401;-72
2022/11/05 04:47:07;;;;;;;0.83;0.80;;;8.80;99.90;;;;;;4955504;28;20469;-74
2022/11/05 04:49:32;;;;;;;0.80;0.60;;;8.80;99.90;;;;;;4955547;29;20464;-74
2022/11/05 04:51:58;;;;;;;0.80;0.80;;;8.70;99.90;;;;;;4955459;29;20401;-73
2022/11/05 04:54:23;;;;;;;0.97;0.60;;;8.70;99.90;;;;;;4953924;28;20502;-74
2022/11/05 04:56:49;;;;;;;0.68;0.60;;;8.70;99.90;;;;;;4953068;28;20773;-74
2022/11/05 04:59:14;;;;;;;0.68;0.50;;;8.80;99.90;;;;;;4953055;29;20908;-74
2022/11/05 05:01:40;;;;;;;1.70;0.60;;;8.60;99.90;;;;;;4954546;29;20425;-74
2022/11/05 05:04:05;;;;;;;0.80;0.70;;;8.70;99.90;;;;;;4954848;28;20393;-74
2022/11/05 05:06:31;;;;;;;0.90;0.60;;;8.70;99.90;;;;;;4955106;29;20787;-72
2022/11/05 05:08:56;;;;;;;0.90;0.60;;;8.70;99.90;;;;;;4955105;28;20751;-74
2022/11/05 05:11:22;;;;;;;0.80;0.60;;;8.70;99.90;;;;;;4952928;29;20417;-73
2022/11/05 05:13:48;;;;;;;0.63;0.63;;;8.70;99.90;;;;;;4954790;29;20409;-74
2022/11/05 05:16:23;;;;;;;1.60;0.70;;;8.70;99.90;;;;;;4954998;28;20394;-72
2022/11/05 05:18:49;;;;;;;0.77;0.70;;;8.60;99.90;;;;;;4952940;28;20457;-72
2022/11/05 05:24:01;;;;;;;0.80;0.60;;;8.80;99.90;;;;;;4935642;29;20434;-72
2022/11/05 05:26:27;;;;;;;1.27;0.80;;;9.00;99.90;;;;;;4949065;29;20975;-72
2022/11/05 05:28:52;;;;;;;1.00;0.90;;;9.00;99.90;;;;;;4954313;28;20402;-72
2022/11/05 05:31:19;;;;;;;1.00;0.90;;;9.10;99.90;;;;;;4954724;29;20617;-72
2022/11/05 05:33:44;;;;;;;0.70;0.60;;;9.10;99.90;;;;;;4954392;29;20398;-72
2022/11/05 05:36:10;;;;;;;0.80;0.80;;;9.10;99.90;;;;;;4952596;28;20425;-72
2022/11/05 05:38:35;;;;;;;0.80;0.75;;;9.00;99.90;;;;;;4953947;28;20414;-72
2022/11/05 05:41:01;;;;;;;0.70;0.70;;;8.90;99.90;;;;;;4952306;28;20553;-71
2022/11/05 05:43:31;;;;;;;1.00;0.90;;;9.00;99.90;;;;;;4953082;28;20432;-72
2022/11/05 05:46:03;;;;;;;1.10;1.00;;;8.80;99.90;;;;;;4954353;28;20504;-72
2022/11/05 05:48:29;;;;;;;0.82;0.82;;;8.90;99.90;;;;;;4954223;28;20386;-72
2022/11/05 05:51:00;;;;;;;1.63;1.50;;;8.90;99.90;;;;;;4953387;29;20428;-73
2022/11/05 05:53:26;;;;;;;1.42;1.13;;;9.00;99.90;;;;;;4953565;28;20428;-72
2022/11/05 05:55:53;;;;;;;1.10;1.00;;;9.10;99.90;;;;;;4954179;29;20434;-71
2022/11/05 05:58:18;;;;;;;1.10;1.00;;;9.00;99.90;;;;;;4954766;28;20393;-72
2022/11/05 06:00:44;;;;;;;1.40;0.83;;;9.00;99.90;;;;;;4952032;29;20589;-72
2022/11/05 06:03:09;;;;;;;1.40;1.10;;;9.00;99.90;;;;;;4953754;28;20422;-71
2022/11/05 06:05:35;;;;;;;1.77;1.20;;;9.00;99.90;;;;;;4951857;29;20891;-72
2022/11/05 06:08:00;;;;;;;1.55;1.30;;;9.00;99.90;;;;;;4953875;28;20747;-73
2022/11/05 06:10:26;;;;;;;1.60;1.50;;;9.00;99.90;;;;;;4953867;28;20562;-71
2022/11/05 06:12:51;;;;;;;2.40;1.53;;;9.10;99.90;;;;;;4954660;28;20749;-71
2022/11/05 06:15:17;;;;;;;1.77;1.67;;;9.10;99.90;;;;;;4954016;28;21046;-72
2022/11/05 06:17:43;;;;;;;1.70;1.60;;;9.10;99.90;;;;;;4952933;29;20417;-72
2022/11/05 06:20:10;;;;;;;1.70;1.57;;;9.10;99.90;;;;;;4951100;28;20856;-72
2022/11/05 06:22:36;;;;;;;1.60;1.50;;;9.10;99.90;;;;;;4953480;28;20421;-72
2022/11/05 06:25:01;;;;;;;2.80;1.70;;;9.10;99.90;;;;;;4953728;28;20385;-72
2022/11/05 06:27:28;;;;;;;1.80;1.70;;;9.10;99.90;;;;;;4952274;28;20465;-72
2022/11/05 06:29:53;;;;;;;2.30;2.10;;;9.10;99.90;;;;;;4950447;28;20421;-72
2022/11/05 06:32:19;;;;;;;2.90;1.80;;;9.10;99.90;;;;;;4951079;29;20421;-72
2022/11/05 06:34:44;;;;;;;3.67;2.20;;;9.10;99.90;;;;;;4953111;28;20760;-72
2022/11/05 06:37:10;;;;;;;1.60;1.50;;;9.10;99.90;;;;;;4952092;29;20784;-72
2022/11/05 06:39:35;;;;;;;2.03;1.90;;;9.10;99.90;;;;;;4953369;28;20477;-72
2022/11/05 06:42:01;;;;;;;2.00;1.80;;;9.00;99.90;;;;;;4953316;29;20421;-72
2022/11/05 06:44:27;;;;;;;4.40;2.40;;;9.00;99.90;;;;;;4953107;28;20805;-72
2022/11/05 06:46:52;;;;;;;2.95;2.47;;;9.00;99.90;;;;;;4952183;29;20406;-72
2022/11/05 06:49:18;;;;;;;2.60;2.40;;;9.10;99.90;;;;;;4953237;28;21039;-72
2022/11/05 06:51:43;;;;;;;3.20;2.67;;;9.10;99.90;;;;;;4951915;29;20397;-72
2022/11/05 06:54:09;;;;;;;3.23;2.93;;;9.10;99.90;;;;;;4950222;29;20437;-71
2022/11/05 06:56:34;;;;;;;3.53;2.80;;;9.10;99.90;;;;;;4952930;28;20433;-71
2022/11/05 06:59:00;;;;;;;3.30;2.58;;;9.20;99.90;;;;;;4953097;29;20393;-72
2022/11/05 07:01:31;;;;;;;2.77;2.57;;;9.20;99.90;;;;;;4949930;28;20421;-74
2022/11/05 07:03:56;;;;;;;3.30;3.00;;;9.30;99.90;;;;;;4952368;28;20390;-73
2022/11/05 07:06:22;;;;;;;4.70;3.10;;;9.20;99.90;;;;;;4951324;28;20404;-72
2022/11/05 07:08:47;;;;;;;3.80;3.00;;;9.10;99.90;;;;;;4951789;28;20418;-72
2022/11/05 07:11:13;;;;;;;3.20;2.90;;;9.20;99.90;;;;;;4948790;28;20963;-72
2022/11/05 07:13:38;;;;;;;2.95;2.70;;;9.20;99.90;;;;;;4964506;28;20444;-73
2022/11/05 07:16:04;;;;;;;4.65;3.15;;;9.20;99.90;;;;;;4950701;29;20422;-73
2022/11/05 07:18:29;;;;;;;3.78;3.28;;;9.20;99.90;;;;;;4952455;28;20880;-72
2022/11/05 07:20:59;;;;;;;3.83;3.53;;;9.30;99.90;;;;;;4951486;28;20424;-74
2022/11/05 07:23:24;;;;;;;3.97;3.58;;;9.40;99.90;;;;;;4952207;28;20393;-72
2022/11/05 07:25:50;;;;;;;4.70;4.17;;;9.30;99.90;;;;;;4952329;29;20393;-72
2022/11/05 07:28:16;;;;;;;5.20;3.40;;;9.30;99.90;;;;;;4949814;28;20412;-73
2022/11/05 07:30:41;;;;;;;3.80;3.40;;;9.30;99.90;;;;;;4968907;23;20613;-74
2022/11/05 07:33:07;;;;;;;4.03;3.63;;;9.30;99.90;;;;;;4951894;28;20435;-73
2022/11/05 07:35:33;;;;;;;4.43;3.92;;;9.20;99.90;;;;;;4951321;28;20432;-74
2022/11/05 07:37:59;;;;;;;4.00;3.50;;;9.30;99.90;;;;;;4947951;28;20401;-74
2022/11/05 07:40:26;;;;;;;4.80;3.83;;;9.30;99.90;;;;;;4944818;28;20406;-75
2022/11/05 07:42:54;;;;;;;4.40;4.00;;;9.40;99.90;;;;;;4936087;29;20423;-74
2022/11/05 07:45:21;;;;;;;5.85;4.25;;;9.40;99.90;;;;;;4934645;29;20803;-73
2022/11/05 07:47:50;;;;;;;4.20;3.30;;;9.40;99.90;;;;;;4930724;29;20928;-74
2022/11/05 07:50:18;;;;;;;4.30;3.90;;;9.40;99.90;;;;;;4935189;29;20499;-74
2022/11/05 07:52:43;;;;;;;5.20;4.65;;;9.50;99.90;;;;;;4932655;29;20446;-74
2022/11/05 07:55:12;;;;;;;4.32;3.92;;;9.40;99.90;;;;;;4933576;29;20403;-74
2022/11/05 07:57:45;;;;;;;5.60;4.88;;;9.40;99.90;;;;;;4933077;29;20395;-74
2022/11/05 08:00:14;;;;;;;4.05;3.72;;;9.50;99.90;;;;;;4946516;29;20428;-75
2022/11/05 08:02:40;;;;;;;4.30;3.90;;;9.60;99.90;;;;;;4950475;29;20420;-74
2022/11/05 08:05:07;;;;;;;5.72;3.78;;;9.50;99.90;;;;;;4952044;29;20858;-74
2022/11/05 08:07:32;;;;;;;3.42;3.13;;;9.50;99.90;;;;;;4941062;28;20419;-74
2022/11/05 08:09:58;;;;;;;4.03;3.63;;;9.40;99.90;;;;;;4933266;29;20395;-74
2022/11/05 08:12:23;;;;;;;4.70;4.10;;;9.60;99.90;;;;;;4932718;29;20395;-75
2022/11/05 08:14:50;;;;;;;3.27;3.07;;;9.60;99.90;;;;;;4931487;29;20395;-76
2022/11/05 08:17:16;;;;;;;4.30;3.90;;;9.70;99.90;;;;;;4949056;28;20397;-74
2022/11/05 08:19:42;;;;;;;3.40;3.10;;;9.70;99.90;;;;;;4954008;28;20406;-75
2022/11/05 08:22:07;;;;;;;3.50;3.20;;;9.80;99.90;;;;;;4939629;28;20415;-75
2022/11/05 08:24:33;;;;;;;3.40;3.10;;;9.70;99.90;;;;;;4936493;29;20391;-75
2022/11/05 08:26:58;;;;;;;4.20;3.38;;;9.80;99.90;;;;;;4935134;29;20426;-75
2022/11/05 08:29:24;;;;;;;4.30;3.60;;;10.00;99.90;;;;;;4935309;29;20401;-74
2022/11/05 08:31:49;;;;;;;3.50;3.07;;;10.00;99.90;;;;;;4936827;29;20535;-75
2022/11/05 08:34:15;;;;;;;3.30;3.00;;;9.80;99.90;;;;;;4951531;29;20907;-76
2022/11/05 08:36:45;;;;;;;4.53;3.80;;;9.70;99.90;;;;;;4954365;28;20390;-74
2022/11/05 08:39:13;;;;;;;3.88;3.47;;;9.70;99.90;;;;;;4955631;28;20408;-74
2022/11/05 08:41:39;;;;;;;3.88;3.40;;;9.70;99.90;;;;;;4954242;28;20760;-74
2022/11/05 08:44:07;;;;;;;5.18;4.10;;;9.60;99.90;;;;;;4944108;28;20388;-74
2022/11/05 08:46:35;;;;;;;4.18;3.78;;;9.60;99.90;;;;;;4936465;29;20395;-75
2022/11/05 08:49:04;;;;;;;4.10;3.50;;;9.60;99.90;;;;;;4936105;29;20870;-75
2022/11/05 08:51:29;;;;;;;4.15;3.75;;;9.70;99.90;;;;;;4936789;29;20411;-74
2022/11/05 08:53:55;;;;;;;5.07;3.97;;;9.60;99.90;;;;;;4935876;29;20771;-73
2022/11/05 08:56:22;;;;;;;4.40;4.00;;;9.70;99.90;;;;;;4936050;29;20395;-73
2022/11/05 08:58:47;;;;;;;4.30;3.90;;;9.60;99.90;;;;;;4946230;29;20460;-74
2022/11/05 09:01:13;;;;;;;5.70;3.90;;;9.50;99.90;;;;;;4955064;28;20405;-74
2022/11/05 09:03:38;;;;;;;4.23;3.80;;;9.50;99.90;;;;;;4953859;28;20505;-73
2022/11/05 09:06:04;;;;;;;4.38;3.80;;;9.60;99.90;;;;;;4955390;28;20717;-74
2022/11/05 09:08:30;;;;;;;4.20;3.80;;;9.60;99.90;;;;;;4934283;29;20477;-74
2022/11/05 09:10:56;;;;;;;4.00;3.70;;;9.60;99.90;;;;;;4935611;29;20872;-73
2022/11/05 09:13:21;;;;;;;4.00;3.60;;;9.60;99.90;;;;;;4946613;29;20433;-73
2022/11/05 09:15:50;;;;;;;4.68;4.10;;;9.60;99.90;;;;;;4938217;28;20789;-73
2022/11/05 09:18:17;;;;;;;4.07;3.67;;;9.60;99.90;;;;;;4933820;29;20403;-73
2022/11/05 09:20:43;;;;;;;4.60;4.20;;;9.60;99.90;;;;;;4939271;29;20478;-74
2022/11/05 09:23:09;;;;;;;4.40;4.00;;;9.60;99.90;;;;;;4932876;29;20985;-73
2022/11/05 09:25:35;;;;;;;5.90;4.80;;;9.50;99.90;;;;;;4932546;29;20434;-74
2022/11/05 09:28:19;;;;;;;5.18;4.40;;;9.60;99.90;;;;;;4931576;29;20412;-76
2022/11/05 09:30:46;;;;;;;5.38;4.10;;;9.60;99.90;;;;;;4923358;29;20917;-73
2022/11/05 09:33:12;;;;;;;4.20;3.80;;;9.80;99.90;;;;;;4933261;29;20412;-73
2022/11/05 09:35:39;;;;;;;4.45;4.05;;;9.80;99.90;;;;;;4940723;29;20506;-73
2022/11/05 09:38:05;;;;;;;4.60;4.20;;;9.90;99.90;;;;;;4935255;29;20395;-75
2022/11/05 09:40:36;;;;;;;5.65;4.47;;;10.00;99.90;;;;;;4936747;29;20391;-75
2022/11/05 09:43:03;;;;;;;5.40;4.40;;;9.90;99.90;;;;;;4954045;28;20378;-73
2022/11/05 09:45:31;;;;;;;4.93;4.47;;;9.90;99.90;;;;;;4954375;28;20888;-74
2022/11/05 09:48:13;;;;;;;5.50;4.57;;;9.80;99.90;;;;;;4954164;29;20390;-73
2022/11/05 09:50:43;;;;;;;5.75;5.15;;;9.60;99.90;;;;;;4936885;28;20403;-73
2022/11/05 09:53:13;;;;;;;5.50;4.40;;;9.80;99.90;;;;;;4933981;29;20454;-73
2022/11/05 09:55:41;;;;;;;5.10;4.60;;;9.80;99.90;;;;;;4934140;29;20813;-74
2022/11/05 09:58:23;;;;;;;4.35;3.95;;;9.90;99.90;;;;;;4935156;29;20969;-71
2022/11/05 10:00:51;;;;;;;6.72;4.43;;;9.90;99.90;;;;;;4934835;29;20459;-72
2022/11/05 10:03:21;;;;;;;6.70;4.65;;;9.90;99.90;;;;;;4933741;29;20392;-72
2022/11/05 10:05:48;;;;;;;4.43;4.03;;;10.10;99.90;;;;;;4934520;29;20738;-71
2022/11/05 10:08:18;;;;;;;4.83;4.20;;;10.40;99.90;;;;;;4933999;29;20478;-71
2022/11/05 10:10:49;;;;;;;5.57;4.40;;;10.30;99.90;;;;;;4921717;29;20393;-72
2022/11/05 10:13:34;;;;;;;6.25;4.22;;;10.30;99.90;;;;;;4915478;29;20787;-72
2022/11/05 10:16:36;;;;;;;4.82;4.30;;;10.40;99.90;;;;;;4942530;29;20421;-72
2022/11/05 10:19:13;;;;;;;5.50;4.83;;;10.10;99.90;;;;;;4946266;28;20885;-72
2022/11/05 10:21:38;;;;;;;4.82;3.80;;;10.20;99.90;;;;;;4934683;29;20980;-72
2022/11/05 10:24:13;;;;;;;6.93;4.67;;;10.10;99.90;;;;;;4933442;29;20527;-71
2022/11/05 10:26:39;;;;;;;4.65;4.22;;;10.00;99.90;;;;;;4934431;29;20387;-72
2022/11/05 10:29:05;;;;;;;5.00;4.60;;;10.30;99.90;;;;;;4933554;29;20407;-72
2022/11/05 10:31:34;;;;;;;5.83;4.70;;;10.10;99.90;;;;;;4933609;29;20411;-71
2022/11/05 10:34:02;;;;;;;7.13;4.60;;;10.20;99.90;;;;;;4932816;29;20392;-71
2022/11/05 10:36:33;;;;;;;7.23;5.30;;;10.40;99.90;;;;;;4933048;29;20898;-71
2022/11/05 10:39:11;;;;;;;5.32;4.35;;;10.20;99.90;;;;;;4933879;29;20410;-71
2022/11/05 10:41:51;;;;;;;4.60;4.10;;;10.20;99.90;;;;;;4933703;29;20514;-72
2022/11/05 10:44:35;;;;;;;4.70;4.30;;;10.30;99.90;;;;;;4933533;29;20486;-72
2022/11/05 10:47:15;;;;;;;4.45;4.05;;;10.30;99.90;;;;;;4934028;29;20395;-72
2022/11/05 10:49:43;;;;;;;4.43;4.00;;;10.30;99.90;;;;;;4930488;29;20957;-72
2022/11/05 10:52:29;;;;;;;4.50;4.10;;;10.50;99.90;;;;;;4932733;29;20928;-72
2022/11/05 10:55:02;;;;;;;4.75;4.25;;;10.40;99.90;;;;;;4933500;29;20415;-72
2022/11/05 10:57:35;;;;;;;5.13;4.63;;;10.40;99.90;;;;;;4929930;29;20565;-73
2022/11/05 11:00:15;;;;;;;4.85;4.35;;;10.50;99.90;;;;;;4936439;29;20451;-72
2022/11/05 11:02:54;;;;;;;4.70;4.20;;;10.40;99.90;;;;;;4930094;29;20426;-72
2022/11/05 11:05:22;;;;;;;4.50;4.10;;;10.40;99.90;;;;;;4931531;28;20466;-72
2022/11/05 11:08:17;;;;;;;4.23;3.70;;;10.40;99.90;;;;;;4929987;29;20840;-72
2022/11/05 11:10:55;;;;;;;5.75;4.40;;;10.30;99.90;;;;;;4944465;29;20406;-73
2022/11/05 11:13:27;;;;;;;4.40;4.00;;;10.30;99.90;;;;;;4952476;28;20405;-72
2022/11/05 11:15:53;;;;;;;5.43;4.57;;;10.40;99.90;;;;;;4942438;28;20411;-73
2022/11/05 11:18:35;;;;;;;5.07;4.15;;;10.50;99.90;;;;;;4932850;29;20396;-72
2022/11/05 11:21:22;;;;;;;6.00;4.60;;;10.50;99.90;;;;;;4929761;29;20531;-72
2022/11/05 11:24:02;;;;;;;5.55;4.68;;;10.40;99.90;;;;;;4928090;29;20487;-78
2022/11/05 11:26:46;;;;;;;4.47;3.90;;;10.40;99.90;;;;;;4938254;29;20494;-75
2022/11/05 11:29:20;;;;;;;5.32;4.30;;;10.40;99.90;;;;;;4933503;29;20380;-75
2022/11/05 11:31:46;;;;;;;5.75;4.60;;;10.20;99.90;;;;;;4931233;29;20430;-75
2022/11/05 11:34:33;;;;;;;4.80;4.30;;;10.20;99.90;;;;;;4931039;29;20769;-76
2022/11/05 11:37:16;;;;;;;4.30;3.90;;;10.20;99.90;;;;;;4931864;29;20392;-75
2022/11/05 11:39:48;;;;;;;5.70;4.80;;;10.20;99.90;;;;;;4936401;29;20420;-75
2022/11/05 11:42:31;;;;;;;5.28;4.78;;;10.30;99.90;;;;;;4952382;28;20492;-75
2022/11/05 11:45:02;;;;;;;6.35;4.50;;;10.30;99.90;;;;;;4952283;28;20808;-75
2022/11/05 11:47:28;;;;;;;5.00;4.60;;;10.20;99.90;;;;;;4936205;28;20939;-77
2022/11/05 11:49:59;;;;;;;6.97;4.78;;;10.30;99.90;;;;;;4947426;29;20466;-76
2022/11/05 11:52:33;;;;;;;5.00;4.10;;;10.30;99.90;;;;;;4932496;29;20396;-75
2022/11/05 11:55:11;;;;;;;5.55;4.30;;;10.30;99.90;;;;;;4933111;29;20399;-75
2022/11/05 11:57:52;;;;;;;5.78;4.78;;;10.40;99.90;;;;;;4943078;29;20486;-75
2022/11/05 12:00:22;;;;;;;6.20;4.30;;;10.50;99.90;;;;;;4937068;28;20431;-75
2022/11/05 12:03:11;;;;;;;5.32;4.20;;;10.50;99.90;;;;;;4932651;29;20426;-75
2022/11/05 12:06:05;;;;;;;4.82;4.35;;;10.60;99.90;;;;;;4932880;29;20503;-77
2022/11/05 12:08:48;;;;;;;4.93;3.90;;;10.60;99.90;;;;;;4933072;29;20448;-76
2022/11/05 12:11:38;;;;;;;3.95;3.30;;;10.90;99.90;;;;;;4931564;29;20407;-75
2022/11/05 12:14:22;;;;;;;3.90;3.40;;;10.90;99.90;;;;;;4935607;29;20402;-75
2022/11/05 12:17:01;;;;;;;7.73;4.23;;;11.00;99.90;;;;;;4938630;29;20498;-76
2022/11/05 12:19:45;;;;;;;4.68;3.72;;;10.90;99.90;;;;;;4932517;29;20404;-75
2022/11/05 12:22:17;;;;;;;5.57;4.05;;;11.10;99.90;;;;;;4927779;29;20437;-76
2022/11/05 12:24:58;;;;;;;4.13;3.70;;;11.30;99.90;;;;;;4934276;29;20413;-76
2022/11/05 12:27:35;;;;;;;5.10;4.43;;;11.30;99.90;;;;;;4933329;28;20402;-74
2022/11/05 12:30:19;;;;;;;3.63;3.33;;;11.40;99.90;;;;;;4929493;29;20400;-75
2022/11/05 12:33:01;;;;;;;4.80;3.35;;;11.50;99.90;;;;;;4931846;29;20399;-76
2022/11/05 12:36:05;;;;;;;6.50;4.45;;;11.60;99.90;;;;;;4932722;29;20396;-75
2022/11/05 12:38:49;;;;;;;5.40;3.22;;;11.70;99.90;;;;;;4932859;29;20474;-75
2022/11/05 12:41:25;;;;;;;3.72;3.00;;;11.80;99.90;;;;;;4932948;29;20427;-75
2022/11/05 12:44:18;;;;;;;3.40;3.10;;;11.90;99.90;;;;;;4933144;29;20898;-75
2022/11/05 12:46:51;;;;;;;3.70;2.87;;;11.80;99.90;;;;;;4933927;29;20396;-75
2022/11/05 12:49:51;;;;;;;3.95;2.92;;;11.80;99.90;;;;;;4931860;29;20404;-75
2022/11/05 12:52:39;;;;;;;3.35;2.85;;;11.70;99.90;;;;;;4933194;29;20395;-75
2022/11/05 12:55:20;;;;;;;3.67;2.60;;;11.70;99.90;;;;;;4932804;29;20407;-76
2022/11/05 12:57:49;;;;;;;3.57;2.67;;;11.60;99.90;;;;;;4932544;29;20395;-76
2022/11/05 13:00:26;;;;;;;4.35;2.10;;;12.20;99.90;;;;;;4932532;29;20388;-76
2022/11/05 13:02:59;;;;;;;3.10;2.53;;;13.70;99.90;;;;;;4932731;29;20411;-76
2022/11/05 13:05:32;;;;;;;5.70;2.50;;;15.10;99.90;;;;;;4936067;29;20392;-76
2022/11/05 13:08:13;;;;;;;3.67;2.10;;;15.80;99.90;;;;;;4936084;29;20925;-76
2022/11/05 13:10:49;;;;;;;4.32;2.10;;;16.90;93.70;;;;;;4935741;29;20398;-74
2022/11/05 13:13:21;;;;;;;2.97;1.60;;;16.70;95.00;;;;;;4935675;29;20761;-74
2022/11/05 13:15:51;;;;;;;2.00;1.65;;;16.70;82.90;;;;;;4935624;29;20427;-73
2022/11/05 13:18:24;;;;;;;1.83;1.40;;;13.50;94.30;;;;;;4935914;29;20963;-73
2022/11/05 13:20:52;;;;;;;2.50;2.00;;;13.20;99.50;;;;;;4935361;29;20471;-73
2022/11/05 13:24:11;;;;;;;2.72;2.10;;;12.80;99.90;;;;;;4935334;29;20423;-75
2022/11/05 13:26:51;;;;;;;3.50;2.47;;;12.00;99.90;;;;;;4929721;29;20392;-75
2022/11/05 13:29:31;;;;;;;3.35;2.00;;;11.70;99.90;;;;;;4938923;29;20880;-75
2022/11/05 13:32:03;;;;;;;2.60;1.20;;;11.50;99.90;;;;;;4967220;23;20416;-72
2022/11/05 13:34:29;;;;;;;3.10;2.40;;;11.70;99.90;;;;;;4954545;28;20714;-72
2022/11/05 13:39:57;;;;;;;2.20;1.70;;;11.70;99.90;;;;;;4963125;28;20431;-72
2022/11/05 13:42:53;;;;;;;2.70;1.80;;;11.50;99.90;;;;;;4959654;28;20521;-72
2022/11/05 13:45:36;;;;;;;2.10;1.30;;;11.40;99.90;;;;;;4959596;28;20439;-73
2022/11/05 13:48:14;;;;;;;5.50;3.17;;;11.30;99.90;;;;;;4962839;28;21007;-73
2022/11/05 13:50:58;;;;;;;6.45;3.75;;;11.30;99.90;;;;;;4964340;28;20456;-74
2022/11/05 13:53:41;;;;;;;7.47;4.50;;;11.50;99.90;;;;;;4967565;28;20725;-72
2022/11/05 13:56:44;;;;;;;6.60;3.80;;;11.50;99.90;;;;;;4966087;28;20483;-71
2022/11/05 13:59:19;;;;;;;7.40;4.50;;;11.40;99.90;;;;;;4958381;28;20515;-72
2022/11/05 14:02:24;;;;;;;6.32;4.00;;;11.30;99.90;;;;;;4964426;28;20444;-72
2022/11/05 14:04:59;;;;;;;7.00;3.90;;;11.40;99.90;;;;;;4969269;28;20461;-72